createdAt,value
2022-11-30T00:00:52.211Z,22.45
2022-11-30T00:03:18.723Z,18.17
2022-11-30T00:05:45.248Z,20.33
2022-11-30T00:08:11.634Z,18.50
2022-11-30T00:10:39.066Z,20.27
2022-11-30T00:13:05.550Z,21.98
2022-11-30T00:15:32.885Z,20.90
2022-11-30T00:17:59.632Z,17.70
2022-11-30T00:20:28.136Z,20.67
2022-11-30T00:22:55.443Z,25.25
2022-11-30T00:25:21.990Z,21.33
2022-11-30T00:27:48.393Z,21.77
2022-11-30T00:30:15.268Z,20.05
2022-11-30T00:32:41.837Z,19.15
2022-11-30T00:35:08.325Z,20.38
2022-11-30T00:37:35.901Z,18.75
2022-11-30T00:40:02.316Z,18.95
2022-11-30T00:42:28.713Z,19.48
2022-11-30T00:44:55.190Z,19.48
2022-11-30T00:47:21.573Z,20.35
2022-11-30T00:49:47.985Z,26.50
2022-11-30T00:52:14.412Z,26.65
2022-11-30T00:54:40.770Z,22.98
2022-11-30T00:57:07.153Z,23.30
2022-11-30T00:59:33.524Z,19.10
2022-11-30T01:01:59.894Z,24.48
2022-11-30T01:04:26.267Z,19.27
2022-11-30T01:06:52.685Z,16.27
2022-11-30T01:09:19.030Z,22.05
2022-11-30T01:11:45.447Z,19.95
2022-11-30T01:14:12.858Z,25.95
2022-11-30T01:16:39.391Z,22.13
2022-11-30T01:19:06.026Z,20.88
2022-11-30T01:21:32.656Z,23.30
2022-11-30T01:23:59.026Z,20.92
2022-11-30T01:26:25.489Z,21.52
2022-11-30T01:28:53.840Z,21.55
2022-11-30T01:31:21.573Z,22.20
2022-11-30T01:33:52.854Z,21.58
2022-11-30T01:36:22.171Z,18.83
2022-11-30T01:38:51.612Z,17.73
2022-11-30T01:41:24.793Z,17.13
2022-11-30T01:43:53.683Z,22.13
2022-11-30T01:46:26.420Z,20.70
2022-11-30T01:49:11.359Z,18.77
2022-11-30T01:51:58.307Z,24.05
2022-11-30T01:54:30.066Z,18.63
2022-11-30T01:57:03.156Z,20.35
2022-11-30T02:01:56.371Z,15.90
2022-11-30T02:04:28.362Z,22.45
2022-11-30T02:06:57.324Z,19.80
2022-11-30T02:09:25.739Z,23.50
2022-11-30T02:11:53.021Z,16.40
2022-11-30T02:14:31.746Z,16.20
2022-11-30T02:17:33.397Z,20.27
2022-11-30T02:20:12.131Z,20.23
2022-11-30T02:23:03.041Z,20.05
2022-11-30T02:25:48.248Z,18.90
2022-11-30T02:28:32.253Z,20.35
2022-11-30T02:31:04.293Z,20.95
2022-11-30T02:33:33.842Z,21.07
2022-11-30T02:36:02.236Z,24.25
2022-11-30T02:38:29.200Z,25.27
2022-11-30T02:40:55.875Z,18.77
2022-11-30T02:43:25.858Z,18.88
2022-11-30T02:46:22.231Z,18.20
2022-11-30T02:49:00.818Z,20.77
2022-11-30T02:51:32.015Z,17.10
2022-11-30T02:53:58.661Z,20.70
2022-11-30T02:56:25.769Z,18.42
2022-11-30T02:58:52.476Z,21.50
2022-11-30T03:01:18.876Z,25.42
2022-11-30T03:03:45.298Z,21.25
2022-11-30T03:06:11.651Z,26.60
2022-11-30T03:08:38.063Z,22.10
2022-11-30T03:11:05.750Z,22.85
2022-11-30T03:13:33.886Z,21.65
2022-11-30T03:16:11.972Z,20.63
2022-11-30T03:18:40.829Z,24.80
2022-11-30T03:21:11.997Z,21.92
2022-11-30T03:23:39.233Z,22.65
2022-11-30T03:26:07.905Z,26.45
2022-11-30T03:28:36.282Z,19.27
2022-11-30T03:31:02.700Z,20.90
2022-11-30T03:33:29.447Z,16.42
2022-11-30T03:36:03.568Z,19.58
2022-11-30T03:38:30.369Z,18.20
2022-11-30T03:41:04.928Z,20.10
2022-11-30T03:43:31.978Z,24.13
2022-11-30T03:45:58.821Z,21.77
2022-11-30T03:48:25.954Z,25.70
2022-11-30T03:50:52.476Z,20.55
2022-11-30T03:53:20.973Z,21.88
2022-11-30T03:55:52.891Z,23.83
2022-11-30T03:58:19.562Z,21.88
2022-11-30T04:00:45.896Z,25.55
2022-11-30T04:03:12.418Z,22.00
2022-11-30T04:05:39.179Z,21.95
2022-11-30T04:08:05.584Z,21.60
2022-11-30T04:10:31.949Z,19.63
2022-11-30T04:12:58.338Z,24.15
2022-11-30T04:15:24.697Z,23.35
2022-11-30T04:17:51.407Z,22.35
2022-11-30T04:20:17.800Z,22.00
2022-11-30T04:22:44.174Z,21.58
2022-11-30T04:25:10.515Z,28.90
2022-11-30T04:27:36.935Z,21.33
2022-11-30T04:30:03.810Z,21.75
2022-11-30T04:32:30.181Z,19.88
2022-11-30T04:34:56.743Z,24.50
2022-11-30T04:37:23.146Z,22.70
2022-11-30T04:39:49.599Z,22.88
2022-11-30T04:42:16.110Z,22.83
2022-11-30T04:44:42.442Z,22.23
2022-11-30T04:47:08.842Z,21.70
2022-11-30T04:49:35.284Z,22.38
2022-11-30T04:52:01.665Z,22.05
2022-11-30T04:54:27.987Z,25.65
2022-11-30T04:56:54.490Z,26.95
2022-11-30T04:59:20.824Z,25.27
2022-11-30T05:01:47.319Z,19.05
2022-11-30T05:04:14.104Z,22.17
2022-11-30T05:06:40.674Z,22.55
2022-11-30T05:09:07.006Z,33.22
2022-11-30T05:11:33.498Z,27.85
2022-11-30T05:13:59.912Z,22.13
2022-11-30T05:16:26.364Z,18.95
2022-11-30T05:18:52.734Z,23.65
2022-11-30T05:21:19.081Z,23.20
2022-11-30T05:23:46.997Z,22.35
2022-11-30T05:26:13.379Z,27.48
2022-11-30T05:28:39.737Z,24.63
2022-11-30T05:31:06.262Z,27.35
2022-11-30T05:33:33.769Z,22.60
2022-11-30T05:36:02.435Z,27.67
2022-11-30T05:38:30.989Z,29.65
2022-11-30T05:41:01.500Z,26.27
2022-11-30T05:43:28.731Z,30.50
2022-11-30T05:46:03.261Z,25.20
2022-11-30T05:48:29.854Z,24.33
2022-11-30T05:51:04.228Z,26.85
2022-11-30T05:53:30.712Z,28.05
2022-11-30T05:56:00.968Z,24.15
2022-11-30T05:58:28.029Z,26.85
2022-11-30T06:00:54.360Z,25.38
2022-11-30T06:03:20.857Z,25.98
2022-11-30T06:05:51.469Z,28.48
2022-11-30T06:08:21.212Z,30.33
2022-11-30T06:10:47.947Z,26.85
2022-11-30T06:13:14.472Z,25.35
2022-11-30T06:15:41.872Z,24.48
2022-11-30T06:18:11.042Z,23.70
2022-11-30T06:20:37.469Z,26.67
2022-11-30T06:23:04.037Z,28.75
2022-11-30T06:25:30.724Z,28.25
2022-11-30T06:27:57.206Z,29.27
2022-11-30T06:30:23.749Z,24.70
2022-11-30T06:32:51.787Z,29.50
2022-11-30T06:35:19.219Z,31.65
2022-11-30T06:37:45.637Z,25.58
2022-11-30T06:40:13.877Z,24.77
2022-11-30T06:42:40.384Z,27.23
2022-11-30T06:45:07.387Z,31.52
2022-11-30T06:47:33.883Z,28.02
2022-11-30T06:50:00.360Z,29.98
2022-11-30T06:52:26.906Z,28.73
2022-11-30T06:54:53.261Z,28.73
2022-11-30T06:57:19.878Z,30.48
2022-11-30T06:59:46.513Z,24.63
2022-11-30T07:02:18.250Z,25.58
2022-11-30T07:04:45.824Z,16.63
2022-11-30T07:07:12.520Z,26.98
2022-11-30T07:09:39.093Z,23.02
2022-11-30T07:12:06.042Z,33.47
2022-11-30T07:14:32.426Z,39.05
2022-11-30T07:16:58.802Z,42.78
2022-11-30T07:19:26.244Z,30.52
2022-11-30T07:21:52.602Z,26.65
2022-11-30T07:24:37.700Z,22.20
2022-11-30T07:27:04.317Z,28.17
2022-11-30T07:29:30.791Z,25.20
2022-11-30T07:31:57.337Z,24.83
2022-11-30T07:34:23.908Z,28.63
2022-11-30T07:36:50.333Z,25.50
2022-11-30T07:39:16.756Z,24.27
2022-11-30T07:41:43.139Z,23.77
2022-11-30T07:44:11.408Z,27.58
2022-11-30T07:46:39.255Z,30.70
2022-11-30T07:49:07.680Z,28.08
2022-11-30T07:51:34.391Z,24.52
2022-11-30T07:54:00.943Z,26.85
2022-11-30T07:56:27.932Z,30.67
2022-11-30T07:58:59.357Z,28.55
2022-11-30T08:01:28.493Z,29.85
2022-11-30T08:03:55.160Z,31.50
2022-11-30T08:06:27.143Z,28.77
2022-11-30T08:08:56.830Z,31.30
2022-11-30T08:11:27.218Z,26.38
2022-11-30T08:13:53.920Z,34.08
2022-11-30T08:16:23.326Z,30.67
2022-11-30T08:18:50.398Z,30.48
2022-11-30T08:21:19.384Z,35.78
2022-11-30T08:23:48.786Z,31.77
2022-11-30T08:26:18.100Z,32.30
2022-11-30T08:28:46.002Z,30.65
2022-11-30T08:31:16.449Z,29.50
2022-11-30T08:33:43.103Z,31.63
2022-11-30T08:36:14.938Z,30.58
2022-11-30T08:38:43.379Z,28.15
2022-11-30T08:41:11.507Z,26.52
2022-11-30T08:43:37.945Z,31.45
2022-11-30T08:46:27.405Z,34.35
2022-11-30T08:49:12.523Z,31.35
2022-11-30T08:52:08.609Z,27.35
2022-11-30T08:54:27.351Z,29.60
2022-11-30T08:56:53.789Z,34.22
2022-11-30T08:59:20.120Z,35.25
2022-11-30T09:01:46.504Z,30.77
2022-11-30T09:04:13.014Z,27.73
2022-11-30T09:06:39.364Z,32.72
2022-11-30T09:09:06.333Z,33.92
2022-11-30T09:11:33.988Z,29.85
2022-11-30T09:14:04.620Z,26.42
2022-11-30T09:16:31.221Z,25.95
2022-11-30T09:18:57.851Z,30.35
2022-11-30T09:21:25.540Z,26.73
2022-11-30T09:23:52.739Z,28.52
2022-11-30T09:26:21.377Z,26.20
2022-11-30T09:28:48.272Z,26.27
2022-11-30T09:31:17.482Z,28.40
2022-11-30T09:33:44.534Z,29.27
2022-11-30T09:36:12.981Z,29.13
2022-11-30T09:38:42.258Z,26.95
2022-11-30T09:41:46.481Z,29.63
2022-11-30T09:44:36.486Z,28.40
2022-11-30T09:47:07.574Z,26.20
2022-11-30T09:49:37.623Z,31.23
2022-11-30T09:52:09.793Z,24.25
2022-11-30T09:54:44.290Z,32.35
2022-11-30T09:57:29.087Z,26.23
2022-11-30T09:59:57.257Z,26.88
2022-11-30T10:02:35.028Z,26.75
2022-11-30T10:05:01.715Z,30.70
2022-11-30T10:07:43.548Z,24.17
2022-11-30T10:10:38.924Z,27.65
2022-11-30T10:13:25.275Z,33.42
2022-11-30T10:16:19.669Z,33.58
2022-11-30T10:19:21.870Z,35.85
2022-11-30T10:22:06.836Z,29.67
2022-11-30T10:25:11.669Z,27.73
2022-11-30T10:27:51.747Z,28.08
2022-11-30T10:30:29.482Z,34.63
2022-11-30T10:33:02.412Z,34.20
2022-11-30T10:35:40.480Z,30.10
2022-11-30T10:38:44.736Z,29.23
2022-11-30T10:41:26.468Z,34.97
2022-11-30T10:44:00.852Z,34.13
2022-11-30T10:46:34.128Z,32.85
2022-11-30T10:49:08.021Z,33.65
2022-11-30T10:51:38.881Z,26.00
2022-11-30T10:54:16.486Z,34.10
2022-11-30T10:56:43.080Z,30.75
2022-11-30T10:59:25.211Z,29.80
2022-11-30T11:01:53.299Z,30.75
2022-11-30T11:04:22.738Z,31.90
2022-11-30T11:06:52.480Z,33.72
2022-11-30T11:09:35.410Z,33.83
2022-11-30T11:12:04.981Z,29.40
2022-11-30T11:14:37.468Z,28.65
2022-11-30T11:17:21.639Z,26.77
2022-11-30T11:19:49.629Z,27.60
2022-11-30T11:22:22.508Z,28.52
2022-11-30T11:24:51.258Z,28.48
2022-11-30T11:27:32.595Z,24.17
2022-11-30T11:30:08.593Z,30.00
2022-11-30T11:32:35.366Z,31.20
2022-11-30T11:35:01.691Z,31.55
2022-11-30T11:37:33.806Z,32.40
2022-11-30T11:40:02.434Z,28.43
2022-11-30T11:42:33.423Z,31.20
2022-11-30T11:45:00.912Z,31.25
2022-11-30T11:47:43.806Z,34.50
2022-11-30T11:50:13.233Z,36.92
2022-11-30T11:52:39.657Z,30.80
2022-11-30T11:55:14.358Z,32.45
2022-11-30T11:57:48.275Z,34.13
2022-11-30T12:00:18.477Z,34.90
2022-11-30T12:02:54.045Z,32.33
2022-11-30T12:05:30.406Z,33.55
2022-11-30T12:08:08.485Z,35.53
2022-11-30T12:11:00.273Z,29.80
2022-11-30T12:13:32.960Z,32.80
2022-11-30T12:16:14.498Z,31.48
2022-11-30T12:18:54.437Z,30.60
2022-11-30T12:21:39.172Z,32.45
2022-11-30T12:24:28.779Z,31.58
2022-11-30T12:27:00.876Z,31.77
2022-11-30T12:29:41.290Z,23.23
2022-11-30T12:32:25.199Z,29.60
2022-11-30T12:35:06.689Z,32.17
2022-11-30T12:38:11.633Z,30.45
2022-11-30T12:40:47.238Z,30.85
2022-11-30T12:43:28.550Z,34.35
2022-11-30T12:46:03.826Z,32.97
2022-11-30T12:48:38.375Z,32.00
2022-11-30T12:51:35.357Z,33.75
2022-11-30T12:54:11.541Z,32.78
2022-11-30T12:56:46.809Z,34.08
2022-11-30T12:59:44.071Z,33.38
2022-11-30T13:02:29.115Z,30.08
2022-11-30T13:05:02.159Z,32.40
2022-11-30T13:10:20.896Z,29.25
2022-11-30T13:12:51.003Z,31.17
2022-11-30T13:15:32.499Z,29.17
2022-11-30T13:18:01.646Z,27.20
2022-11-30T13:20:38.801Z,29.80
2022-11-30T13:23:17.041Z,26.92
2022-11-30T13:26:09.803Z,27.90
2022-11-30T13:29:01.981Z,29.52
2022-11-30T13:31:36.069Z,24.55
2022-11-30T13:34:02.478Z,28.25
2022-11-30T13:36:45.043Z,30.48
2022-11-30T13:39:14.095Z,29.98
2022-11-30T13:41:46.377Z,27.25
2022-11-30T13:44:30.922Z,27.77
2022-11-30T13:46:57.606Z,24.98
2022-11-30T13:49:33.158Z,29.13
2022-11-30T13:52:22.196Z,31.02
2022-11-30T13:54:47.950Z,28.27
2022-11-30T13:57:18.387Z,28.20
2022-11-30T13:59:50.609Z,31.48
2022-11-30T14:05:39.816Z,30.95
2022-11-30T14:08:06.451Z,30.48
2022-11-30T14:10:34.037Z,30.00
2022-11-30T14:13:05.180Z,29.90
2022-11-30T14:15:41.614Z,29.55
2022-11-30T14:18:07.919Z,31.75
2022-11-30T14:20:52.553Z,33.40
2022-11-30T14:23:29.566Z,29.77
2022-11-30T14:26:01.681Z,31.17
2022-11-30T14:28:41.073Z,26.48
2022-11-30T14:31:15.035Z,31.38
2022-11-30T14:33:53.314Z,35.55
2022-11-30T14:36:21.700Z,28.75
2022-11-30T14:38:48.067Z,24.77
2022-11-30T14:41:24.695Z,27.08
2022-11-30T14:44:20.370Z,29.90
2022-11-30T14:46:46.811Z,34.00
2022-11-30T14:49:24.023Z,25.08
2022-11-30T14:52:13.501Z,25.92
2022-11-30T14:55:10.568Z,31.35
2022-11-30T14:57:50.800Z,28.92
2022-11-30T15:00:19.719Z,27.52
2022-11-30T15:02:47.015Z,23.55
2022-11-30T15:05:20.801Z,26.25
2022-11-30T15:07:48.216Z,26.38
2022-11-30T15:10:28.073Z,28.17
2022-11-30T15:12:57.384Z,25.40
2022-11-30T15:15:27.909Z,23.70
2022-11-30T15:17:59.612Z,25.88
2022-11-30T15:20:51.623Z,28.88
2022-11-30T15:23:18.131Z,26.10
2022-11-30T15:25:48.105Z,23.85
2022-11-30T15:28:33.873Z,22.83
2022-11-30T15:31:05.958Z,22.05
2022-11-30T15:33:45.252Z,24.33
2022-11-30T15:36:27.805Z,24.35
2022-11-30T15:39:03.315Z,23.95
2022-11-30T15:41:30.764Z,27.10
2022-11-30T15:43:57.519Z,26.95
2022-11-30T15:46:33.466Z,27.50
2022-11-30T15:49:05.725Z,25.25
2022-11-30T15:51:38.791Z,21.70
2022-11-30T15:56:31.882Z,27.27
2022-11-30T15:59:04.582Z,32.35
2022-11-30T16:02:01.310Z,28.55
2022-11-30T16:04:56.837Z,25.73
2022-11-30T16:07:35.618Z,28.80
2022-11-30T16:10:16.465Z,29.25
2022-11-30T16:12:43.793Z,26.88
2022-11-30T16:15:24.212Z,23.95
2022-11-30T16:17:52.102Z,29.02
2022-11-30T16:20:20.724Z,28.80
2022-11-30T16:22:48.294Z,33.00
2022-11-30T16:25:23.583Z,29.35
2022-11-30T16:27:50.824Z,31.58
2022-11-30T16:30:22.436Z,34.25
2022-11-30T16:32:50.041Z,31.23
2022-11-30T16:35:36.702Z,30.30
2022-11-30T16:38:03.380Z,26.67
2022-11-30T16:40:35.320Z,30.67
2022-11-30T16:43:04.759Z,28.42
2022-11-30T16:45:38.631Z,26.23
2022-11-30T16:48:06.587Z,26.05
2022-11-30T16:50:34.888Z,23.27
2022-11-30T16:53:05.763Z,22.77
2022-11-30T16:55:34.948Z,17.02
2022-11-30T16:58:01.767Z,19.58
2022-11-30T17:00:28.300Z,20.85
2022-11-30T17:03:17.873Z,18.60
2022-11-30T17:05:44.294Z,18.25
2022-11-30T17:08:11.138Z,20.00
2022-11-30T17:10:38.786Z,16.02
2022-11-30T17:13:05.910Z,19.45
2022-11-30T17:15:32.382Z,20.95
2022-11-30T17:17:59.514Z,15.18
2022-11-30T17:20:27.448Z,16.50
2022-11-30T17:22:53.835Z,18.10
2022-11-30T17:25:22.973Z,15.27
2022-11-30T17:27:50.521Z,18.60
2022-11-30T17:30:19.787Z,14.32
2022-11-30T17:32:46.868Z,16.23
2022-11-30T17:35:14.378Z,15.10
2022-11-30T17:37:40.784Z,17.42
2022-11-30T17:40:08.959Z,16.70
2022-11-30T17:42:35.375Z,16.80
2022-11-30T17:45:01.803Z,17.88
2022-11-30T17:47:28.252Z,17.13
2022-11-30T17:49:54.748Z,17.40
2022-11-30T17:52:21.109Z,18.23
2022-11-30T17:54:47.807Z,18.17
2022-11-30T17:57:14.503Z,22.30
2022-11-30T17:59:40.877Z,23.05
2022-11-30T18:02:10.624Z,20.27
2022-11-30T18:04:37.187Z,23.45
2022-11-30T18:07:03.700Z,22.77
2022-11-30T18:09:30.375Z,20.25
2022-11-30T18:11:56.769Z,19.90
2022-11-30T18:14:23.205Z,18.40
2022-11-30T18:16:49.582Z,18.70
2022-11-30T18:19:17.716Z,17.80
2022-11-30T18:21:44.179Z,17.90
2022-11-30T18:24:11.980Z,17.25
2022-11-30T18:26:38.923Z,16.45
2022-11-30T18:29:06.063Z,14.20
2022-11-30T18:31:33.095Z,17.17
2022-11-30T18:34:01.742Z,15.25
2022-11-30T18:36:28.939Z,17.65
2022-11-30T18:38:55.347Z,17.40
2022-11-30T18:41:22.234Z,16.67
2022-11-30T18:43:48.632Z,17.60
2022-11-30T18:46:15.063Z,15.27
2022-11-30T18:48:41.795Z,14.88
2022-11-30T18:51:17.376Z,18.63
2022-11-30T18:53:44.420Z,15.90
2022-11-30T18:56:13.821Z,16.67
2022-11-30T18:58:41.583Z,18.50
2022-11-30T19:01:17.973Z,15.60
2022-11-30T19:03:50.794Z,16.63
2022-11-30T19:06:17.284Z,18.08
2022-11-30T19:08:43.672Z,16.55
2022-11-30T19:11:10.258Z,17.90
2022-11-30T19:13:36.826Z,14.55
2022-11-30T19:16:04.943Z,15.80
2022-11-30T19:18:31.904Z,16.42
2022-11-30T19:20:58.512Z,15.43
2022-11-30T19:23:24.894Z,16.20
2022-11-30T19:25:51.651Z,14.98
2022-11-30T19:28:18.351Z,14.52
2022-11-30T19:30:44.960Z,16.95
2022-11-30T19:33:13.013Z,13.95
2022-11-30T19:35:40.051Z,14.50
2022-11-30T19:38:06.392Z,13.45
2022-11-30T19:40:33.037Z,15.23
2022-11-30T19:42:59.498Z,13.75
2022-11-30T19:45:25.949Z,13.70
2022-11-30T19:47:52.299Z,15.05
2022-11-30T19:50:18.870Z,14.98
2022-11-30T19:52:45.234Z,15.45
2022-11-30T19:55:11.862Z,15.38
2022-11-30T19:57:38.466Z,16.52
2022-11-30T20:00:06.735Z,13.45
2022-11-30T20:02:39.472Z,14.07
2022-11-30T20:05:06.442Z,13.55
2022-11-30T20:07:32.960Z,13.02
2022-11-30T20:09:59.767Z,15.98
2022-11-30T20:12:26.111Z,14.07
2022-11-30T20:14:54.755Z,14.88
2022-11-30T20:17:21.110Z,15.60
2022-11-30T20:19:47.552Z,15.65
2022-11-30T20:22:13.978Z,13.80
2022-11-30T20:24:40.513Z,15.13
2022-11-30T20:27:06.846Z,13.55
2022-11-30T20:29:33.237Z,14.27
2022-11-30T20:31:59.598Z,14.45
2022-11-30T20:34:29.812Z,15.52
2022-11-30T20:37:00.462Z,13.20
2022-11-30T20:39:26.851Z,14.20
2022-11-30T20:41:53.459Z,16.38
2022-11-30T20:44:19.892Z,15.63
2022-11-30T20:46:46.339Z,14.00
2022-11-30T20:49:17.554Z,15.35
2022-11-30T20:51:44.956Z,16.75
2022-11-30T20:54:12.739Z,15.65
2022-11-30T20:56:39.612Z,14.30
2022-11-30T20:59:08.684Z,16.63
2022-11-30T21:01:35.453Z,16.60
2022-11-30T21:04:01.886Z,13.57
2022-11-30T21:06:29.908Z,13.45
2022-11-30T21:08:56.568Z,16.90
2022-11-30T21:11:23.460Z,14.32
2022-11-30T21:13:51.071Z,18.25
2022-11-30T21:16:26.937Z,15.02
2022-11-30T21:18:55.113Z,14.15
2022-11-30T21:21:24.179Z,16.38
2022-11-30T21:23:51.103Z,14.70
2022-11-30T21:26:26.544Z,18.15
2022-11-30T21:28:55.644Z,21.95
2022-11-30T21:31:23.291Z,16.33
2022-11-30T21:33:53.185Z,17.98
2022-11-30T21:36:20.793Z,15.75
2022-11-30T21:38:47.226Z,16.35
2022-11-30T21:41:14.575Z,16.30
2022-11-30T21:43:41.287Z,15.88
2022-11-30T21:46:11.842Z,15.48
2022-11-30T21:48:40.420Z,16.05
2022-11-30T21:51:09.174Z,19.58
2022-11-30T21:53:38.091Z,18.30
2022-11-30T21:56:06.591Z,17.98
2022-11-30T21:58:34.081Z,17.10
2022-11-30T22:01:01.746Z,15.55
2022-11-30T22:03:28.832Z,16.67
2022-11-30T22:06:02.421Z,18.90
2022-11-30T22:08:29.720Z,18.75
2022-11-30T22:11:00.985Z,18.02
2022-11-30T22:13:28.843Z,20.23
2022-11-30T22:16:03.766Z,21.55
2022-11-30T22:18:30.420Z,17.40
2022-11-30T22:21:19.397Z,15.80
2022-11-30T22:23:49.127Z,16.15
2022-11-30T22:26:17.987Z,15.75
2022-11-30T22:28:49.918Z,15.48
2022-11-30T22:31:19.237Z,17.25
2022-11-30T22:33:46.251Z,17.45
2022-11-30T22:36:18.725Z,17.00
2022-11-30T22:38:45.579Z,16.52
2022-11-30T22:41:18.325Z,15.70
2022-11-30T22:43:46.299Z,14.88
2022-11-30T22:46:20.731Z,17.80
2022-11-30T22:48:47.619Z,15.95
2022-11-30T22:51:22.674Z,16.83
2022-11-30T22:53:49.953Z,15.77
2022-11-30T22:56:18.319Z,15.60
2022-11-30T22:58:47.039Z,17.20
2022-11-30T23:01:18.840Z,17.65
2022-11-30T23:03:47.493Z,15.15
2022-11-30T23:06:15.529Z,20.42
2022-11-30T23:08:42.805Z,20.73
2022-11-30T23:11:12.887Z,17.73
2022-11-30T23:13:41.659Z,16.42
2022-11-30T23:16:09.721Z,21.58
2022-11-30T23:18:48.621Z,20.23
2022-11-30T23:21:24.697Z,19.17
2022-11-30T23:23:51.672Z,20.48
2022-11-30T23:26:24.241Z,20.50
2022-11-30T23:28:53.083Z,17.58
2022-11-30T23:31:32.372Z,18.70
2022-11-30T23:34:01.467Z,17.02
2022-11-30T23:36:27.923Z,17.33
2022-11-30T23:39:00.188Z,15.52
2022-11-30T23:41:27.288Z,16.00
2022-11-30T23:43:54.218Z,18.90
2022-11-30T23:46:21.355Z,19.85
2022-11-30T23:48:48.104Z,20.88
2022-11-30T23:51:14.562Z,19.02
2022-11-30T23:53:41.028Z,16.88
2022-11-30T23:56:11.724Z,23.60
2022-11-30T23:58:39.496Z,18.02
